sensor_id;sensor_type;location;lat;lon;timestamp;P1;durP1;ratioP1;P2;durP2;ratioP2
49235;SDS011;35067;48.134;8.378;2023-11-21T00:00:37;1.00;;;0.60;;
49235;SDS011;35067;48.134;8.378;2023-11-21T00:01:37;0.60;;;0.60;;
49235;SDS011;35067;48.134;8.378;2023-11-21T00:02:38;0.60;;;0.60;;
49235;SDS011;35067;48.134;8.378;2023-11-21T00:03:40;1.20;;;0.88;;
49235;SDS011;35067;48.134;8.378;2023-11-21T00:04:41;1.37;;;0.70;;
49235;SDS011;35067;48.134;8.378;2023-11-21T00:05:42;1.43;;;0.50;;
49235;SDS011;35067;48.134;8.378;2023-11-21T00:06:43;0.70;;;0.70;;
49235;SDS011;35067;48.134;8.378;2023-11-21T00:07:46;2.08;;;0.65;;
49235;SDS011;35067;48.134;8.378;2023-11-21T00:08:47;1.60;;;0.50;;
49235;SDS011;35067;48.134;8.378;2023-11-21T00:09:48;1.67;;;0.57;;
49235;SDS011;35067;48.134;8.378;2023-11-21T00:10:48;1.23;;;0.73;;
49235;SDS011;35067;48.134;8.378;2023-11-21T00:11:49;2.17;;;0.60;;
49235;SDS011;35067;48.134;8.378;2023-11-21T00:12:50;1.60;;;0.60;;
49235;SDS011;35067;48.134;8.378;2023-11-21T00:13:51;0.90;;;0.60;;
49235;SDS011;35067;48.134;8.378;2023-11-21T00:14:52;0.88;;;0.60;;
49235;SDS011;35067;48.134;8.378;2023-11-21T00:15:53;1.20;;;0.50;;
49235;SDS011;35067;48.134;8.378;2023-11-21T00:16:53;1.17;;;0.70;;
49235;SDS011;35067;48.134;8.378;2023-11-21T00:17:54;2.20;;;0.60;;
49235;SDS011;35067;48.134;8.378;2023-11-21T00:18:55;0.50;;;0.50;;
49235;SDS011;35067;48.134;8.378;2023-11-21T00:19:56;1.63;;;0.70;;
49235;SDS011;35067;48.134;8.378;2023-11-21T00:20:56;1.60;;;0.60;;
49235;SDS011;35067;48.134;8.378;2023-11-21T00:21:58;1.75;;;0.60;;
49235;SDS011;35067;48.134;8.378;2023-11-21T00:22:59;0.40;;;0.40;;
49235;SDS011;35067;48.134;8.378;2023-11-21T00:24:02;0.60;;;0.60;;
49235;SDS011;35067;48.134;8.378;2023-11-21T00:25:03;2.92;;;0.80;;
49235;SDS011;35067;48.134;8.378;2023-11-21T00:26:04;0.75;;;0.75;;
49235;SDS011;35067;48.134;8.378;2023-11-21T00:27:05;1.42;;;0.68;;
49235;SDS011;35067;48.134;8.378;2023-11-21T00:28:06;0.60;;;0.60;;
49235;SDS011;35067;48.134;8.378;2023-11-21T00:29:07;1.63;;;0.50;;
49235;SDS011;35067;48.134;8.378;2023-11-21T00:30:08;0.43;;;0.43;;
49235;SDS011;35067;48.134;8.378;2023-11-21T00:31:09;0.40;;;0.40;;
49235;SDS011;35067;48.134;8.378;2023-11-21T00:32:10;0.40;;;0.40;;
49235;SDS011;35067;48.134;8.378;2023-11-21T00:33:11;0.90;;;0.50;;
49235;SDS011;35067;48.134;8.378;2023-11-21T00:34:12;0.70;;;0.50;;
49235;SDS011;35067;48.134;8.378;2023-11-21T00:35:12;0.40;;;0.40;;
49235;SDS011;35067;48.134;8.378;2023-11-21T00:36:13;0.73;;;0.50;;
49235;SDS011;35067;48.134;8.378;2023-11-21T00:37:14;0.50;;;0.50;;
49235;SDS011;35067;48.134;8.378;2023-11-21T00:38:15;0.60;;;0.60;;
49235;SDS011;35067;48.134;8.378;2023-11-21T00:39:15;0.50;;;0.40;;
49235;SDS011;35067;48.134;8.378;2023-11-21T00:40:16;0.40;;;0.40;;
49235;SDS011;35067;48.134;8.378;2023-11-21T00:41:19;0.30;;;0.30;;
49235;SDS011;35067;48.134;8.378;2023-11-21T00:42:20;0.40;;;0.40;;
49235;SDS011;35067;48.134;8.378;2023-11-21T00:43:22;1.73;;;0.50;;
49235;SDS011;35067;48.134;8.378;2023-11-21T00:44:23;0.45;;;0.40;;
49235;SDS011;35067;48.134;8.378;2023-11-21T00:45:24;1.17;;;0.50;;
49235;SDS011;35067;48.134;8.378;2023-11-21T00:46:25;0.50;;;0.30;;
49235;SDS011;35067;48.134;8.378;2023-11-21T00:47:28;1.25;;;0.43;;
49235;SDS011;35067;48.134;8.378;2023-11-21T00:48:29;0.40;;;0.40;;
49235;SDS011;35067;48.134;8.378;2023-11-21T00:49:29;0.50;;;0.50;;
49235;SDS011;35067;48.134;8.378;2023-11-21T00:50:30;0.63;;;0.30;;
49235;SDS011;35067;48.134;8.378;2023-11-21T00:51:31;0.30;;;0.30;;
49235;SDS011;35067;48.134;8.378;2023-11-21T00:52:32;0.40;;;0.40;;
49235;SDS011;35067;48.134;8.378;2023-11-21T00:53:33;0.33;;;0.33;;
49235;SDS011;35067;48.134;8.378;2023-11-21T00:54:34;0.37;;;0.37;;
49235;SDS011;35067;48.134;8.378;2023-11-21T00:55:35;0.67;;;0.30;;
49235;SDS011;35067;48.134;8.378;2023-11-21T00:56:35;0.33;;;0.30;;
49235;SDS011;35067;48.134;8.378;2023-11-21T00:57:37;0.28;;;0.28;;
49235;SDS011;35067;48.134;8.378;2023-11-21T00:58:38;0.40;;;0.40;;
49235;SDS011;35067;48.134;8.378;2023-11-21T00:59:39;0.93;;;0.60;;
49235;SDS011;35067;48.134;8.378;2023-11-21T01:00:39;0.30;;;0.30;;
49235;SDS011;35067;48.134;8.378;2023-11-21T01:01:41;0.40;;;0.40;;
49235;SDS011;35067;48.134;8.378;2023-11-21T01:02:41;0.47;;;0.30;;
49235;SDS011;35067;48.134;8.378;2023-11-21T01:03:45;0.40;;;0.40;;
49235;SDS011;35067;48.134;8.378;2023-11-21T01:04:46;0.40;;;0.40;;
49235;SDS011;35067;48.134;8.378;2023-11-21T01:05:47;0.30;;;0.30;;
49235;SDS011;35067;48.134;8.378;2023-11-21T01:06:50;0.77;;;0.40;;
49235;SDS011;35067;48.134;8.378;2023-11-21T01:07:50;1.03;;;0.50;;
49235;SDS011;35067;48.134;8.378;2023-11-21T01:08:51;0.93;;;0.37;;
49235;SDS011;35067;48.134;8.378;2023-11-21T01:09:52;1.10;;;0.40;;
49235;SDS011;35067;48.134;8.378;2023-11-21T01:10:53;0.40;;;0.30;;
49235;SDS011;35067;48.134;8.378;2023-11-21T01:11:53;0.30;;;0.30;;
49235;SDS011;35067;48.134;8.378;2023-11-21T01:12:54;0.57;;;0.30;;
49235;SDS011;35067;48.134;8.378;2023-11-21T01:13:55;0.40;;;0.40;;
49235;SDS011;35067;48.134;8.378;2023-11-21T01:14:55;0.20;;;0.20;;
49235;SDS011;35067;48.134;8.378;2023-11-21T01:15:57;0.55;;;0.43;;
49235;SDS011;35067;48.134;8.378;2023-11-21T01:16:58;0.20;;;0.20;;
49235;SDS011;35067;48.134;8.378;2023-11-21T01:17:59;0.40;;;0.40;;
49235;SDS011;35067;48.134;8.378;2023-11-21T01:18:59;0.40;;;0.40;;
49235;SDS011;35067;48.134;8.378;2023-11-21T01:20:02;0.30;;;0.30;;
49235;SDS011;35067;48.134;8.378;2023-11-21T01:21:06;0.30;;;0.30;;
49235;SDS011;35067;48.134;8.378;2023-11-21T01:22:07;0.30;;;0.30;;
49235;SDS011;35067;48.134;8.378;2023-11-21T01:23:09;0.40;;;0.40;;
49235;SDS011;35067;48.134;8.378;2023-11-21T01:24:09;0.50;;;0.30;;
49235;SDS011;35067;48.134;8.378;2023-11-21T01:25:10;0.30;;;0.30;;
49235;SDS011;35067;48.134;8.378;2023-11-21T01:26:11;0.20;;;0.20;;
49235;SDS011;35067;48.134;8.378;2023-11-21T01:27:12;0.40;;;0.40;;
49235;SDS011;35067;48.134;8.378;2023-11-21T01:28:12;0.30;;;0.30;;
49235;SDS011;35067;48.134;8.378;2023-11-21T01:29:13;0.30;;;0.30;;
49235;SDS011;35067;48.134;8.378;2023-11-21T01:30:15;0.30;;;0.30;;
49235;SDS011;35067;48.134;8.378;2023-11-21T01:31:16;0.75;;;0.38;;
49235;SDS011;35067;48.134;8.378;2023-11-21T01:32:17;0.50;;;0.40;;
49235;SDS011;35067;48.134;8.378;2023-11-21T01:33:18;0.40;;;0.40;;
49235;SDS011;35067;48.134;8.378;2023-11-21T01:34:18;0.43;;;0.40;;
49235;SDS011;35067;48.134;8.378;2023-11-21T01:35:20;0.63;;;0.50;;
49235;SDS011;35067;48.134;8.378;2023-11-21T01:36:21;1.50;;;0.40;;
49235;SDS011;35067;48.134;8.378;2023-11-21T01:37:22;0.30;;;0.30;;
49235;SDS011;35067;48.134;8.378;2023-11-21T01:38:22;0.63;;;0.40;;
49235;SDS011;35067;48.134;8.378;2023-11-21T01:39:24;0.30;;;0.30;;
49235;SDS011;35067;48.134;8.378;2023-11-21T01:40:25;0.80;;;0.50;;
49235;SDS011;35067;48.134;8.378;2023-11-21T01:41:26;0.40;;;0.40;;
49235;SDS011;35067;48.134;8.378;2023-11-21T01:42:28;1.08;;;0.40;;
49235;SDS011;35067;48.134;8.378;2023-11-21T01:43:29;0.30;;;0.30;;
49235;SDS011;35067;48.134;8.378;2023-11-21T01:44:31;0.30;;;0.30;;
49235;SDS011;35067;48.134;8.378;2023-11-21T01:45:37;0.35;;;0.35;;
49235;SDS011;35067;48.134;8.378;2023-11-21T01:46:39;0.30;;;0.30;;
49235;SDS011;35067;48.134;8.378;2023-11-21T01:47:41;0.30;;;0.30;;
49235;SDS011;35067;48.134;8.378;2023-11-21T01:48:44;0.50;;;0.40;;
49235;SDS011;35067;48.134;8.378;2023-11-21T01:49:45;0.30;;;0.30;;
49235;SDS011;35067;48.134;8.378;2023-11-21T01:50:48;0.30;;;0.30;;
49235;SDS011;35067;48.134;8.378;2023-11-21T01:51:49;0.37;;;0.37;;
49235;SDS011;35067;48.134;8.378;2023-11-21T01:52:51;0.30;;;0.30;;
49235;SDS011;35067;48.134;8.378;2023-11-21T01:53:52;0.40;;;0.40;;
49235;SDS011;35067;48.134;8.378;2023-11-21T01:54:53;0.63;;;0.40;;
49235;SDS011;35067;48.134;8.378;2023-11-21T01:55:54;0.30;;;0.30;;
49235;SDS011;35067;48.134;8.378;2023-11-21T01:56:57;0.22;;;0.22;;
49235;SDS011;35067;48.134;8.378;2023-11-21T01:58:02;0.50;;;0.50;;
49235;SDS011;35067;48.134;8.378;2023-11-21T01:59:03;1.23;;;0.40;;
49235;SDS011;35067;48.134;8.378;2023-11-21T02:00:04;1.60;;;0.40;;
49235;SDS011;35067;48.134;8.378;2023-11-21T02:01:15;0.98;;;0.30;;
49235;SDS011;35067;48.134;8.378;2023-11-21T02:02:18;0.30;;;0.30;;
49235;SDS011;35067;48.134;8.378;2023-11-21T02:03:19;0.30;;;0.30;;
49235;SDS011;35067;48.134;8.378;2023-11-21T02:04:19;1.13;;;0.40;;
49235;SDS011;35067;48.134;8.378;2023-11-21T02:05:21;0.55;;;0.40;;
49235;SDS011;35067;48.134;8.378;2023-11-21T02:06:22;0.30;;;0.30;;
49235;SDS011;35067;48.134;8.378;2023-11-21T02:07:24;0.38;;;0.38;;
49235;SDS011;35067;48.134;8.378;2023-11-21T02:08:25;0.73;;;0.30;;
49235;SDS011;35067;48.134;8.378;2023-11-21T02:09:27;0.38;;;0.38;;
49235;SDS011;35067;48.134;8.378;2023-11-21T02:10:30;0.40;;;0.40;;
49235;SDS011;35067;48.134;8.378;2023-11-21T02:11:31;0.30;;;0.30;;
49235;SDS011;35067;48.134;8.378;2023-11-21T02:12:35;0.30;;;0.30;;
49235;SDS011;35067;48.134;8.378;2023-11-21T02:13:36;0.30;;;0.30;;
49235;SDS011;35067;48.134;8.378;2023-11-21T02:14:37;0.30;;;0.30;;
49235;SDS011;35067;48.134;8.378;2023-11-21T02:15:38;0.20;;;0.20;;
49235;SDS011;35067;48.134;8.378;2023-11-21T02:16:38;0.30;;;0.30;;
49235;SDS011;35067;48.134;8.378;2023-11-21T02:17:43;1.15;;;0.40;;
49235;SDS011;35067;48.134;8.378;2023-11-21T02:18:44;0.88;;;0.40;;
49235;SDS011;35067;48.134;8.378;2023-11-21T02:19:47;0.32;;;0.32;;
49235;SDS011;35067;48.134;8.378;2023-11-21T02:20:51;0.50;;;0.43;;
49235;SDS011;35067;48.134;8.378;2023-11-21T02:21:52;0.37;;;0.37;;
49235;SDS011;35067;48.134;8.378;2023-11-21T02:22:54;0.32;;;0.32;;
49235;SDS011;35067;48.134;8.378;2023-11-21T02:23:59;1.13;;;0.40;;
49235;SDS011;35067;48.134;8.378;2023-11-21T02:25:00;0.30;;;0.30;;
49235;SDS011;35067;48.134;8.378;2023-11-21T02:26:00;0.40;;;0.40;;
49235;SDS011;35067;48.134;8.378;2023-11-21T02:27:04;0.43;;;0.40;;
49235;SDS011;35067;48.134;8.378;2023-11-21T02:28:06;0.38;;;0.38;;
49235;SDS011;35067;48.134;8.378;2023-11-21T02:29:07;1.07;;;0.40;;
49235;SDS011;35067;48.134;8.378;2023-11-21T02:30:10;0.30;;;0.30;;
49235;SDS011;35067;48.134;8.378;2023-11-21T02:31:13;0.30;;;0.30;;
49235;SDS011;35067;48.134;8.378;2023-11-21T02:32:14;0.83;;;0.77;;
49235;SDS011;35067;48.134;8.378;2023-11-21T02:33:16;0.60;;;0.35;;
49235;SDS011;35067;48.134;8.378;2023-11-21T02:34:17;0.60;;;0.30;;
49235;SDS011;35067;48.134;8.378;2023-11-21T02:35:18;2.20;;;0.57;;
49235;SDS011;35067;48.134;8.378;2023-11-21T02:36:22;0.50;;;0.50;;
49235;SDS011;35067;48.134;8.378;2023-11-21T02:37:23;0.50;;;0.50;;
49235;SDS011;35067;48.134;8.378;2023-11-21T02:38:24;1.23;;;0.60;;
49235;SDS011;35067;48.134;8.378;2023-11-21T02:39:24;1.33;;;0.67;;
49235;SDS011;35067;48.134;8.378;2023-11-21T02:40:25;0.90;;;0.80;;
49235;SDS011;35067;48.134;8.378;2023-11-21T02:41:26;0.80;;;0.70;;
49235;SDS011;35067;48.134;8.378;2023-11-21T02:42:27;1.73;;;0.90;;
49235;SDS011;35067;48.134;8.378;2023-11-21T02:43:28;0.90;;;0.60;;
49235;SDS011;35067;48.134;8.378;2023-11-21T02:44:29;1.20;;;1.10;;
49235;SDS011;35067;48.134;8.378;2023-11-21T02:45:30;0.97;;;0.50;;
49235;SDS011;35067;48.134;8.378;2023-11-21T02:46:32;0.88;;;0.50;;
49235;SDS011;35067;48.134;8.378;2023-11-21T02:47:33;0.50;;;0.50;;
49235;SDS011;35067;48.134;8.378;2023-11-21T02:48:34;0.47;;;0.40;;
49235;SDS011;35067;48.134;8.378;2023-11-21T02:49:36;0.43;;;0.43;;
49235;SDS011;35067;48.134;8.378;2023-11-21T02:50:36;0.40;;;0.40;;
49235;SDS011;35067;48.134;8.378;2023-11-21T02:51:37;0.63;;;0.53;;
49235;SDS011;35067;48.134;8.378;2023-11-21T02:52:39;0.40;;;0.40;;
49235;SDS011;35067;48.134;8.378;2023-11-21T02:53:42;1.48;;;0.50;;
49235;SDS011;35067;48.134;8.378;2023-11-21T02:54:43;0.40;;;0.40;;
49235;SDS011;35067;48.134;8.378;2023-11-21T02:55:43;0.40;;;0.40;;
49235;SDS011;35067;48.134;8.378;2023-11-21T02:56:44;0.50;;;0.50;;
49235;SDS011;35067;48.134;8.378;2023-11-21T02:57:45;0.85;;;0.50;;
49235;SDS011;35067;48.134;8.378;2023-11-21T02:58:46;2.00;;;0.50;;
49235;SDS011;35067;48.134;8.378;2023-11-21T02:59:47;0.43;;;0.33;;
49235;SDS011;35067;48.134;8.378;2023-11-21T03:00:48;0.40;;;0.40;;
49235;SDS011;35067;48.134;8.378;2023-11-21T03:01:48;0.33;;;0.33;;
49235;SDS011;35067;48.134;8.378;2023-11-21T03:02:49;0.30;;;0.30;;
49235;SDS011;35067;48.134;8.378;2023-11-21T03:03:50;0.73;;;0.40;;
49235;SDS011;35067;48.134;8.378;2023-11-21T03:04:51;0.40;;;0.40;;
49235;SDS011;35067;48.134;8.378;2023-11-21T03:05:52;0.40;;;0.40;;
49235;SDS011;35067;48.134;8.378;2023-11-21T03:06:53;0.60;;;0.50;;
49235;SDS011;35067;48.134;8.378;2023-11-21T03:07:53;0.40;;;0.40;;
49235;SDS011;35067;48.134;8.378;2023-11-21T03:08:54;0.40;;;0.40;;
49235;SDS011;35067;48.134;8.378;2023-11-21T03:09:55;0.70;;;0.50;;
49235;SDS011;35067;48.134;8.378;2023-11-21T03:10:55;0.80;;;0.43;;
49235;SDS011;35067;48.134;8.378;2023-11-21T03:11:56;0.43;;;0.43;;
49235;SDS011;35067;48.134;8.378;2023-11-21T03:12:57;0.43;;;0.43;;
49235;SDS011;35067;48.134;8.378;2023-11-21T03:13:58;2.60;;;0.60;;
49235;SDS011;35067;48.134;8.378;2023-11-21T03:14:58;2.20;;;0.50;;
49235;SDS011;35067;48.134;8.378;2023-11-21T03:15:59;0.40;;;0.40;;
49235;SDS011;35067;48.134;8.378;2023-11-21T03:17:00;0.40;;;0.40;;
49235;SDS011;35067;48.134;8.378;2023-11-21T03:18:01;1.00;;;0.60;;
49235;SDS011;35067;48.134;8.378;2023-11-21T03:19:02;0.35;;;0.35;;
49235;SDS011;35067;48.134;8.378;2023-11-21T03:20:03;1.50;;;0.60;;
49235;SDS011;35067;48.134;8.378;2023-11-21T03:21:05;0.93;;;0.40;;
49235;SDS011;35067;48.134;8.378;2023-11-21T03:22:08;0.40;;;0.40;;
49235;SDS011;35067;48.134;8.378;2023-11-21T03:23:09;0.57;;;0.57;;
49235;SDS011;35067;48.134;8.378;2023-11-21T03:24:10;0.50;;;0.40;;
49235;SDS011;35067;48.134;8.378;2023-11-21T03:25:11;0.50;;;0.50;;
49235;SDS011;35067;48.134;8.378;2023-11-21T03:26:12;0.60;;;0.60;;
49235;SDS011;35067;48.134;8.378;2023-11-21T03:27:13;0.87;;;0.53;;
49235;SDS011;35067;48.134;8.378;2023-11-21T03:28:13;0.40;;;0.40;;
49235;SDS011;35067;48.134;8.378;2023-11-21T03:29:14;0.68;;;0.43;;
49235;SDS011;35067;48.134;8.378;2023-11-21T03:30:15;0.70;;;0.40;;
49235;SDS011;35067;48.134;8.378;2023-11-21T03:31:16;1.45;;;0.60;;
49235;SDS011;35067;48.134;8.378;2023-11-21T03:32:18;6.57;;;0.80;;
49235;SDS011;35067;48.134;8.378;2023-11-21T03:33:19;0.40;;;0.40;;
49235;SDS011;35067;48.134;8.378;2023-11-21T03:34:26;0.73;;;0.40;;
49235;SDS011;35067;48.134;8.378;2023-11-21T03:35:27;1.10;;;0.60;;
49235;SDS011;35067;48.134;8.378;2023-11-21T03:36:28;1.03;;;0.80;;
49235;SDS011;35067;48.134;8.378;2023-11-21T03:37:29;0.43;;;0.43;;
49235;SDS011;35067;48.134;8.378;2023-11-21T03:38:29;0.40;;;0.40;;
49235;SDS011;35067;48.134;8.378;2023-11-21T03:39:30;1.13;;;0.50;;
49235;SDS011;35067;48.134;8.378;2023-11-21T03:40:31;0.57;;;0.40;;
49235;SDS011;35067;48.134;8.378;2023-11-21T03:41:32;0.60;;;0.50;;
49235;SDS011;35067;48.134;8.378;2023-11-21T03:42:34;1.10;;;0.50;;
49235;SDS011;35067;48.134;8.378;2023-11-21T03:43:35;0.40;;;0.40;;
49235;SDS011;35067;48.134;8.378;2023-11-21T03:44:36;0.32;;;0.32;;
49235;SDS011;35067;48.134;8.378;2023-11-21T03:45:37;1.87;;;0.80;;
49235;SDS011;35067;48.134;8.378;2023-11-21T03:46:40;0.77;;;0.60;;
49235;SDS011;35067;48.134;8.378;2023-11-21T03:47:41;0.67;;;0.50;;
49235;SDS011;35067;48.134;8.378;2023-11-21T03:48:42;0.73;;;0.55;;
49235;SDS011;35067;48.134;8.378;2023-11-21T03:49:43;0.73;;;0.70;;
49235;SDS011;35067;48.134;8.378;2023-11-21T03:50:43;0.93;;;0.60;;
49235;SDS011;35067;48.134;8.378;2023-11-21T03:51:44;0.60;;;0.40;;
49235;SDS011;35067;48.134;8.378;2023-11-21T03:52:45;0.70;;;0.50;;
49235;SDS011;35067;48.134;8.378;2023-11-21T03:53:45;0.63;;;0.50;;
49235;SDS011;35067;48.134;8.378;2023-11-21T03:54:46;1.60;;;0.67;;
49235;SDS011;35067;48.134;8.378;2023-11-21T03:55:47;0.70;;;0.60;;
49235;SDS011;35067;48.134;8.378;2023-11-21T03:56:48;1.00;;;0.50;;
49235;SDS011;35067;48.134;8.378;2023-11-21T03:57:49;0.50;;;0.50;;
49235;SDS011;35067;48.134;8.378;2023-11-21T03:58:51;1.55;;;0.50;;
49235;SDS011;35067;48.134;8.378;2023-11-21T03:59:52;0.60;;;0.60;;
49235;SDS011;35067;48.134;8.378;2023-11-21T04:00:52;1.27;;;0.53;;
49235;SDS011;35067;48.134;8.378;2023-11-21T04:01:54;0.50;;;0.50;;
49235;SDS011;35067;48.134;8.378;2023-11-21T04:02:57;0.60;;;0.50;;
49235;SDS011;35067;48.134;8.378;2023-11-21T04:03:57;0.93;;;0.60;;
49235;SDS011;35067;48.134;8.378;2023-11-21T04:04:59;0.40;;;0.40;;
49235;SDS011;35067;48.134;8.378;2023-11-21T04:06:00;0.57;;;0.57;;
49235;SDS011;35067;48.134;8.378;2023-11-21T04:07:01;0.60;;;0.60;;
49235;SDS011;35067;48.134;8.378;2023-11-21T04:08:01;0.70;;;0.53;;
49235;SDS011;35067;48.134;8.378;2023-11-21T04:09:02;0.90;;;0.50;;
49235;SDS011;35067;48.134;8.378;2023-11-21T04:10:05;1.02;;;0.55;;
49235;SDS011;35067;48.134;8.378;2023-11-21T04:11:08;1.85;;;0.60;;
49235;SDS011;35067;48.134;8.378;2023-11-21T04:12:11;0.80;;;0.60;;
49235;SDS011;35067;48.134;8.378;2023-11-21T04:13:12;0.47;;;0.40;;
49235;SDS011;35067;48.134;8.378;2023-11-21T04:14:13;0.47;;;0.43;;
49235;SDS011;35067;48.134;8.378;2023-11-21T04:15:14;2.00;;;0.70;;
49235;SDS011;35067;48.134;8.378;2023-11-21T04:16:15;0.50;;;0.50;;
49235;SDS011;35067;48.134;8.378;2023-11-21T04:17:18;0.83;;;0.53;;
49235;SDS011;35067;48.134;8.378;2023-11-21T04:18:19;0.50;;;0.50;;
49235;SDS011;35067;48.134;8.378;2023-11-21T04:19:20;2.10;;;0.60;;
49235;SDS011;35067;48.134;8.378;2023-11-21T04:20:20;0.80;;;0.63;;
49235;SDS011;35067;48.134;8.378;2023-11-21T04:21:23;0.50;;;0.50;;
49235;SDS011;35067;48.134;8.378;2023-11-21T04:22:24;0.50;;;0.50;;
49235;SDS011;35067;48.134;8.378;2023-11-21T04:23:25;0.80;;;0.50;;
49235;SDS011;35067;48.134;8.378;2023-11-21T04:24:25;0.47;;;0.40;;
49235;SDS011;35067;48.134;8.378;2023-11-21T04:25:26;0.50;;;0.50;;
49235;SDS011;35067;48.134;8.378;2023-11-21T04:26:28;1.10;;;0.55;;
49235;SDS011;35067;48.134;8.378;2023-11-21T04:27:29;1.30;;;0.60;;
49235;SDS011;35067;48.134;8.378;2023-11-21T04:28:30;0.70;;;0.70;;
49235;SDS011;35067;48.134;8.378;2023-11-21T04:29:30;0.63;;;0.50;;
49235;SDS011;35067;48.134;8.378;2023-11-21T04:30:31;1.43;;;0.50;;
49235;SDS011;35067;48.134;8.378;2023-11-21T04:31:32;0.90;;;0.50;;
49235;SDS011;35067;48.134;8.378;2023-11-21T04:32:33;0.90;;;0.50;;
49235;SDS011;35067;48.134;8.378;2023-11-21T04:33:34;0.67;;;0.67;;
49235;SDS011;35067;48.134;8.378;2023-11-21T04:34:34;0.73;;;0.60;;
49235;SDS011;35067;48.134;8.378;2023-11-21T04:35:35;1.83;;;0.60;;
49235;SDS011;35067;48.134;8.378;2023-11-21T04:36:36;0.50;;;0.50;;
49235;SDS011;35067;48.134;8.378;2023-11-21T04:37:37;0.50;;;0.50;;
49235;SDS011;35067;48.134;8.378;2023-11-21T04:38:37;3.93;;;0.80;;
49235;SDS011;35067;48.134;8.378;2023-11-21T04:39:38;0.60;;;0.60;;
49235;SDS011;35067;48.134;8.378;2023-11-21T04:40:39;0.50;;;0.50;;
49235;SDS011;35067;48.134;8.378;2023-11-21T04:41:39;0.50;;;0.50;;
49235;SDS011;35067;48.134;8.378;2023-11-21T04:42:40;0.70;;;0.70;;
49235;SDS011;35067;48.134;8.378;2023-11-21T04:43:41;0.67;;;0.67;;
49235;SDS011;35067;48.134;8.378;2023-11-21T04:44:42;0.60;;;0.60;;
49235;SDS011;35067;48.134;8.378;2023-11-21T04:45:44;3.88;;;2.13;;
49235;SDS011;35067;48.134;8.378;2023-11-21T04:46:44;21.67;;;12.50;;
49235;SDS011;35067;48.134;8.378;2023-11-21T04:47:45;7.23;;;5.50;;
49235;SDS011;35067;48.134;8.378;2023-11-21T04:48:46;6.80;;;4.50;;
49235;SDS011;35067;48.134;8.378;2023-11-21T04:49:47;4.63;;;3.43;;
49235;SDS011;35067;48.134;8.378;2023-11-21T04:50:48;3.28;;;1.80;;
49235;SDS011;35067;48.134;8.378;2023-11-21T04:51:48;3.33;;;2.07;;
49235;SDS011;35067;48.134;8.378;2023-11-21T04:52:49;2.00;;;1.50;;
49235;SDS011;35067;48.134;8.378;2023-11-21T04:53:50;1.20;;;1.10;;
49235;SDS011;35067;48.134;8.378;2023-11-21T04:54:50;2.30;;;1.10;;
49235;SDS011;35067;48.134;8.378;2023-11-21T04:55:51;1.30;;;0.90;;
49235;SDS011;35067;48.134;8.378;2023-11-21T04:56:52;1.15;;;0.80;;
49235;SDS011;35067;48.134;8.378;2023-11-21T04:57:54;0.80;;;0.77;;
49235;SDS011;35067;48.134;8.378;2023-11-21T04:58:54;1.43;;;0.60;;
49235;SDS011;35067;48.134;8.378;2023-11-21T04:59:55;0.90;;;0.60;;
49235;SDS011;35067;48.134;8.378;2023-11-21T05:00:56;1.00;;;0.77;;
49235;SDS011;35067;48.134;8.378;2023-11-21T05:01:57;1.80;;;0.90;;
49235;SDS011;35067;48.134;8.378;2023-11-21T05:03:00;1.23;;;1.00;;
49235;SDS011;35067;48.134;8.378;2023-11-21T05:04:04;1.73;;;0.98;;
49235;SDS011;35067;48.134;8.378;2023-11-21T05:05:06;1.02;;;0.80;;
49235;SDS011;35067;48.134;8.378;2023-11-21T05:06:09;1.58;;;1.30;;
49235;SDS011;35067;48.134;8.378;2023-11-21T05:07:10;1.70;;;1.48;;
49235;SDS011;35067;48.134;8.378;2023-11-21T05:08:12;3.70;;;1.73;;
49235;SDS011;35067;48.134;8.378;2023-11-21T05:09:13;2.42;;;1.88;;
49235;SDS011;35067;48.134;8.378;2023-11-21T05:10:14;2.83;;;1.90;;
49235;SDS011;35067;48.134;8.378;2023-11-21T05:11:24;3.27;;;1.80;;
49235;SDS011;35067;48.134;8.378;2023-11-21T05:12:30;2.40;;;1.70;;
49235;SDS011;35067;48.134;8.378;2023-11-21T05:13:37;2.83;;;2.20;;
49235;SDS011;35067;48.134;8.378;2023-11-21T05:14:39;2.22;;;1.73;;
49235;SDS011;35067;48.134;8.378;2023-11-21T05:15:39;3.03;;;1.70;;
49235;SDS011;35067;48.134;8.378;2023-11-21T05:16:41;1.70;;;1.60;;
49235;SDS011;35067;48.134;8.378;2023-11-21T05:17:42;1.45;;;1.33;;
49235;SDS011;35067;48.134;8.378;2023-11-21T05:18:44;3.58;;;1.50;;
49235;SDS011;35067;48.134;8.378;2023-11-21T05:19:45;2.17;;;1.40;;
49235;SDS011;35067;48.134;8.378;2023-11-21T05:20:48;2.55;;;1.30;;
49235;SDS011;35067;48.134;8.378;2023-11-21T05:21:49;2.47;;;1.50;;
49235;SDS011;35067;48.134;8.378;2023-11-21T05:22:50;2.20;;;1.50;;
49235;SDS011;35067;48.134;8.378;2023-11-21T05:23:51;4.23;;;1.97;;
49235;SDS011;35067;48.134;8.378;2023-11-21T05:24:52;2.40;;;1.73;;
49235;SDS011;35067;48.134;8.378;2023-11-21T05:25:53;4.67;;;2.67;;
49235;SDS011;35067;48.134;8.378;2023-11-21T05:26:54;5.30;;;3.65;;
49235;SDS011;35067;48.134;8.378;2023-11-21T05:27:55;3.28;;;2.63;;
49235;SDS011;35067;48.134;8.378;2023-11-21T05:28:59;5.88;;;3.70;;
49235;SDS011;35067;48.134;8.378;2023-11-21T05:30:05;4.43;;;2.93;;
49235;SDS011;35067;48.134;8.378;2023-11-21T05:31:09;3.30;;;2.72;;
49235;SDS011;35067;48.134;8.378;2023-11-21T05:32:10;5.40;;;2.13;;
49235;SDS011;35067;48.134;8.378;2023-11-21T05:33:11;2.87;;;1.73;;
49235;SDS011;35067;48.134;8.378;2023-11-21T05:34:12;2.27;;;1.83;;
49235;SDS011;35067;48.134;8.378;2023-11-21T05:35:12;2.60;;;1.70;;
49235;SDS011;35067;48.134;8.378;2023-11-21T05:36:15;1.90;;;1.40;;
49235;SDS011;35067;48.134;8.378;2023-11-21T05:37:16;3.40;;;1.50;;
49235;SDS011;35067;48.134;8.378;2023-11-21T05:38:17;4.88;;;1.50;;
49235;SDS011;35067;48.134;8.378;2023-11-21T05:39:18;1.97;;;1.37;;
49235;SDS011;35067;48.134;8.378;2023-11-21T05:40:19;2.92;;;1.15;;
49235;SDS011;35067;48.134;8.378;2023-11-21T05:41:22;1.95;;;1.30;;
49235;SDS011;35067;48.134;8.378;2023-11-21T05:42:23;3.15;;;2.60;;
49235;SDS011;35067;48.134;8.378;2023-11-21T05:43:24;5.30;;;3.43;;
49235;SDS011;35067;48.134;8.378;2023-11-21T05:44:25;5.70;;;3.40;;
49235;SDS011;35067;48.134;8.378;2023-11-21T05:45:26;4.97;;;3.38;;
49235;SDS011;35067;48.134;8.378;2023-11-21T05:46:26;5.00;;;3.40;;
49235;SDS011;35067;48.134;8.378;2023-11-21T05:47:27;52.15;;;11.93;;
49235;SDS011;35067;48.134;8.378;2023-11-21T05:48:28;26.93;;;10.80;;
49235;SDS011;35067;48.134;8.378;2023-11-21T05:49:29;26.27;;;11.60;;
49235;SDS011;35067;48.134;8.378;2023-11-21T05:50:30;31.83;;;10.50;;
49235;SDS011;35067;48.134;8.378;2023-11-21T05:51:31;16.47;;;8.50;;
49235;SDS011;35067;48.134;8.378;2023-11-21T05:52:32;25.20;;;7.20;;
49235;SDS011;35067;48.134;8.378;2023-11-21T05:53:32;19.10;;;6.37;;
49235;SDS011;35067;48.134;8.378;2023-11-21T05:54:33;13.07;;;6.30;;
49235;SDS011;35067;48.134;8.378;2023-11-21T05:55:34;23.17;;;7.90;;
49235;SDS011;35067;48.134;8.378;2023-11-21T05:56:34;45.90;;;12.00;;
49235;SDS011;35067;48.134;8.378;2023-11-21T05:57:36;16.37;;;5.57;;
49235;SDS011;35067;48.134;8.378;2023-11-21T05:58:38;20.73;;;5.20;;
49235;SDS011;35067;48.134;8.378;2023-11-21T05:59:38;51.60;;;8.57;;
49235;SDS011;35067;48.134;8.378;2023-11-21T06:00:39;23.83;;;5.70;;
49235;SDS011;35067;48.134;8.378;2023-11-21T06:01:40;11.93;;;4.83;;
49235;SDS011;35067;48.134;8.378;2023-11-21T06:02:41;14.90;;;5.07;;
49235;SDS011;35067;48.134;8.378;2023-11-21T06:03:41;11.95;;;4.80;;
49235;SDS011;35067;48.134;8.378;2023-11-21T06:04:43;22.95;;;4.38;;
49235;SDS011;35067;48.134;8.378;2023-11-21T06:05:43;114.90;;;10.17;;
49235;SDS011;35067;48.134;8.378;2023-11-21T06:06:44;129.33;;;11.03;;
49235;SDS011;35067;48.134;8.378;2023-11-21T06:07:45;118.00;;;10.53;;
49235;SDS011;35067;48.134;8.378;2023-11-21T06:08:46;37.80;;;4.37;;